Time;durP1;ratioP1;P1;durP2;ratioP2;P2;SDS_P1;SDS_P2;PMS_P1;PMS_P2;Temp;Humidity;BMP_temperature;BMP_pressure;BME280_temperature;BME280_humidity;BME280_pressure;Samples;Min_cycle;Max_cycle;Signal;HPM_P1;HPM_P2
2022/08/19 00:01:51;;;;;;;8.40;4.40;;;20.40;90.40;;;;;;5072952;28;20048;-83
2022/08/19 00:04:18;;;;;;;6.70;4.20;;;20.40;90.40;;;;;;5073094;28;20024;-83
2022/08/19 00:06:46;;;;;;;8.07;3.95;;;20.40;90.50;;;;;;5072993;28;20415;-84
2022/08/19 00:09:15;;;;;;;6.72;3.60;;;20.30;90.60;;;;;;5056496;28;20112;-83
2022/08/19 00:11:43;;;;;;;5.35;3.90;;;20.30;90.70;;;;;;5073186;28;20078;-83
2022/08/19 00:14:11;;;;;;;7.40;4.25;;;20.30;90.70;;;;;;5072720;28;20374;-83
2022/08/19 00:16:38;;;;;;;8.52;4.40;;;20.30;90.80;;;;;;5072980;28;20074;-84
2022/08/19 00:19:04;;;;;;;6.32;3.78;;;20.30;90.90;;;;;;5072777;28;20031;-83
2022/08/19 00:21:30;;;;;;;5.97;4.22;;;20.20;90.90;;;;;;5072698;28;20032;-83
2022/08/19 00:23:59;;;;;;;6.53;5.05;;;20.20;91.00;;;;;;5073343;28;20031;-83
2022/08/19 00:26:26;;;;;;;5.90;4.47;;;20.20;91.10;;;;;;5072491;28;20059;-83
2022/08/19 00:28:52;;;;;;;5.13;3.58;;;20.20;91.10;;;;;;5074347;28;20032;-82
2022/08/19 00:31:17;;;;;;;5.97;3.92;;;20.10;91.20;;;;;;5056027;28;20377;-82
2022/08/19 00:33:43;;;;;;;5.30;3.88;;;20.10;91.30;;;;;;5073854;28;20025;-84
2022/08/19 00:36:09;;;;;;;6.13;4.32;;;20.10;91.30;;;;;;5072449;28;20070;-83
2022/08/19 00:38:37;;;;;;;5.25;4.10;;;20.00;91.30;;;;;;5072357;28;20083;-83
2022/08/19 00:41:04;;;;;;;6.32;4.53;;;20.00;91.40;;;;;;5072235;28;20495;-83
2022/08/19 00:43:30;;;;;;;6.45;4.00;;;19.90;91.40;;;;;;5073842;28;20024;-83
2022/08/19 00:45:56;;;;;;;8.05;4.88;;;19.90;91.50;;;;;;5072567;28;20035;-83
2022/08/19 00:48:23;;;;;;;6.82;4.28;;;19.90;91.60;;;;;;5055712;28;20028;-83
2022/08/19 00:50:50;;;;;;;7.18;4.55;;;19.80;91.60;;;;;;5072190;28;20028;-82
2022/08/19 00:53:19;;;;;;;5.57;4.43;;;19.70;91.60;;;;;;5072037;28;20020;-83
2022/08/19 00:55:47;;;;;;;5.68;4.00;;;19.70;91.70;;;;;;5071510;28;20044;-82
2022/08/19 00:58:18;;;;;;;7.68;5.07;;;19.60;91.80;;;;;;5055491;28;20025;-83
2022/08/19 01:00:48;;;;;;;8.95;4.70;;;19.60;91.90;;;;;;5072647;28;20489;-83
2022/08/19 01:03:17;;;;;;;6.25;4.45;;;19.50;92.00;;;;;;5073306;28;20028;-82
2022/08/19 01:05:44;;;;;;;8.00;5.55;;;19.50;92.10;;;;;;5073292;28;20025;-84
2022/08/19 01:08:11;;;;;;;7.60;5.82;;;19.50;92.20;;;;;;5072215;28;20017;-83
2022/08/19 01:10:54;;;;;;;9.13;5.38;;;19.50;92.30;;;;;;5071738;28;20021;-84
2022/08/19 01:13:31;;;;;;;6.70;5.60;;;19.40;92.40;;;;;;5072113;28;20028;-84
2022/08/19 01:16:11;;;;;;;6.57;5.03;;;19.40;92.50;;;;;;5073273;28;20025;-83
2022/08/19 01:18:42;;;;;;;7.03;5.00;;;19.40;92.60;;;;;;5072889;28;20473;-83
2022/08/19 01:21:14;;;;;;;7.60;5.90;;;19.30;92.60;;;;;;5071913;28;20025;-83
2022/08/19 01:23:43;;;;;;;7.32;5.68;;;19.30;92.70;;;;;;5071579;28;20120;-83
2022/08/19 01:26:15;;;;;;;6.70;5.25;;;19.30;92.70;;;;;;5074060;28;20063;-83
2022/08/19 01:28:42;;;;;;;6.80;5.18;;;19.20;92.80;;;;;;5073605;28;20078;-84
2022/08/19 01:31:12;;;;;;;9.25;5.15;;;19.20;92.90;;;;;;5055392;28;20024;-85
2022/08/19 01:33:37;;;;;;;8.20;6.03;;;19.10;93.00;;;;;;5073658;28;20028;-84
2022/08/19 01:36:06;;;;;;;7.95;5.28;;;19.10;93.10;;;;;;5071988;28;20025;-83
2022/08/19 01:38:36;;;;;;;8.18;5.45;;;19.10;93.20;;;;;;5072020;28;20025;-84
2022/08/19 01:41:02;;;;;;;9.52;5.97;;;19.10;93.30;;;;;;5074649;28;20043;-83
2022/08/19 01:43:27;;;;;;;9.25;6.07;;;19.10;93.30;;;;;;5072515;28;20033;-83
2022/08/19 01:45:53;;;;;;;9.60;6.20;;;19.10;93.40;;;;;;5071881;28;20104;-82
2022/08/19 01:48:19;;;;;;;7.43;5.70;;;19.00;93.50;;;;;;5073018;28;20028;-82
2022/08/19 01:50:45;;;;;;;8.13;6.07;;;19.10;93.60;;;;;;5072226;28;20047;-83
2022/08/19 01:53:11;;;;;;;7.70;5.93;;;19.00;93.70;;;;;;5071545;28;20542;-83
2022/08/19 01:55:39;;;;;;;8.70;6.18;;;19.00;93.80;;;;;;5071378;28;20090;-83
2022/08/19 01:58:07;;;;;;;9.13;6.28;;;18.90;93.90;;;;;;5072433;28;20024;-83
2022/08/19 02:00:33;;;;;;;9.27;6.65;;;19.00;94.00;;;;;;5072710;28;20040;-83
2022/08/19 02:03:00;;;;;;;7.95;6.22;;;19.00;94.10;;;;;;5054829;28;20079;-83
2022/08/19 02:05:29;;;;;;;9.02;6.57;;;19.00;94.20;;;;;;5071445;28;20468;-83
2022/08/19 02:07:58;;;;;;;8.20;6.15;;;19.00;94.30;;;;;;5071514;28;20102;-83
2022/08/19 02:10:24;;;;;;;9.98;5.97;;;19.00;94.40;;;;;;5071273;28;20369;-83
2022/08/19 02:12:50;;;;;;;8.95;7.05;;;19.10;94.50;;;;;;5075935;28;20036;-83
2022/08/19 02:15:19;;;;;;;8.13;6.28;;;19.10;94.60;;;;;;5076701;28;20020;-83
2022/08/19 02:17:45;;;;;;;10.02;7.50;;;19.10;94.70;;;;;;5059078;28;20021;-84
2022/08/19 02:20:12;;;;;;;17.50;6.72;;;19.10;94.70;;;;;;5076454;28;20140;-84
2022/08/19 02:22:38;;;;;;;9.45;7.13;;;19.20;94.80;;;;;;5058950;28;20020;-84
2022/08/19 02:25:04;;;;;;;8.73;6.97;;;19.20;94.90;;;;;;5074489;28;20029;-84
2022/08/19 02:27:30;;;;;;;9.88;7.72;;;19.20;94.90;;;;;;5075595;28;20077;-83
2022/08/19 02:29:56;;;;;;;8.68;7.20;;;19.20;94.90;;;;;;5074889;28;20036;-83
2022/08/19 02:32:22;;;;;;;9.48;7.68;;;19.20;94.90;;;;;;5075081;28;20044;-83
2022/08/19 02:34:48;;;;;;;12.27;6.82;;;19.20;94.90;;;;;;5074918;28;20027;-84
2022/08/19 02:39:58;;;;;;;10.05;7.35;;;19.20;94.90;;;;;;5076110;28;20528;-83
2022/08/19 02:42:24;;;;;;;9.73;6.93;;;19.10;94.90;;;;;;5058111;28;20060;-84
2022/08/19 02:44:49;;;;;;;9.02;6.97;;;19.10;95.00;;;;;;5075246;28;20372;-84
2022/08/19 02:47:15;;;;;;;9.73;6.88;;;19.00;95.00;;;;;;5074591;28;20032;-84
2022/08/19 02:49:41;;;;;;;9.88;7.40;;;18.90;95.00;;;;;;5075944;28;20028;-83
2022/08/19 02:52:07;;;;;;;9.82;6.93;;;19.00;95.20;;;;;;5076051;28;20094;-84
2022/08/19 02:54:33;;;;;;;8.15;6.93;;;18.90;95.20;;;;;;5073671;28;20921;-84
2022/08/19 02:56:58;;;;;;;11.00;7.57;;;18.90;95.40;;;;;;5074891;28;20353;-84
2022/08/19 02:59:26;;;;;;;10.43;6.38;;;18.80;95.40;;;;;;5074506;28;20519;-82
2022/08/19 03:01:51;;;;;;;7.80;5.60;;;18.80;95.60;;;;;;5074483;28;20031;-84
2022/08/19 03:04:19;;;;;;;8.52;5.93;;;18.80;95.60;;;;;;5074222;28;20056;-84
2022/08/19 03:06:46;;;;;;;9.52;7.05;;;18.70;95.60;;;;;;5057656;28;20048;-84
2022/08/19 03:09:13;;;;;;;10.25;7.97;;;18.70;95.70;;;;;;5058006;28;20063;-83
2022/08/19 03:11:39;;;;;;;11.02;7.90;;;18.70;95.70;;;;;;5074798;28;20036;-84
2022/08/19 03:14:06;;;;;;;13.52;10.05;;;18.60;95.70;;;;;;5057697;28;20032;-84
2022/08/19 03:16:35;;;;;;;10.90;9.10;;;18.60;95.70;;;;;;5073936;28;20435;-83
2022/08/19 03:19:02;;;;;;;12.48;9.88;;;18.60;95.80;;;;;;5075246;28;20032;-84
2022/08/19 03:21:31;;;;;;;10.55;8.75;;;18.50;95.80;;;;;;5074270;28;20029;-84
2022/08/19 03:23:59;;;;;;;14.45;8.82;;;18.40;95.90;;;;;;5075550;28;20020;-84
2022/08/19 03:26:25;;;;;;;10.85;8.82;;;18.40;95.90;;;;;;5075369;28;20032;-84
2022/08/19 03:28:51;;;;;;;12.02;9.13;;;18.40;96.00;;;;;;5073808;28;20031;-83
2022/08/19 03:31:25;;;;;;;10.75;8.40;;;18.40;96.10;;;;;;5074113;28;20031;-84
2022/08/19 03:33:51;;;;;;;11.43;8.88;;;18.40;96.20;;;;;;5074049;28;20123;-84
2022/08/19 03:36:21;;;;;;;12.43;9.40;;;18.30;96.20;;;;;;5074418;28;20025;-85
2022/08/19 03:38:58;;;;;;;11.57;8.40;;;18.30;96.30;;;;;;5073967;28;20525;-84
2022/08/19 03:41:31;;;;;;;11.32;9.75;;;18.30;96.30;;;;;;5075163;28;20032;-85
2022/08/19 03:43:57;;;;;;;10.50;8.93;;;18.20;96.40;;;;;;5073586;28;20028;-84
2022/08/19 03:46:29;;;;;;;10.40;9.02;;;18.20;96.50;;;;;;5057143;28;20029;-85
2022/08/19 03:48:57;;;;;;;13.95;9.65;;;18.20;96.60;;;;;;5073819;28;20090;-84
2022/08/19 03:51:26;;;;;;;11.85;9.90;;;18.20;96.60;;;;;;5075223;28;20028;-84
2022/08/19 03:53:54;;;;;;;12.05;9.75;;;18.20;96.70;;;;;;5073337;28;20016;-84
2022/08/19 03:56:20;;;;;;;11.00;9.23;;;18.20;96.80;;;;;;5071619;28;20024;-82
2022/08/19 03:58:46;;;;;;;10.45;8.10;;;18.20;96.90;;;;;;5074700;28;20082;-83
2022/08/19 04:01:15;;;;;;;10.73;8.60;;;18.20;96.80;;;;;;5056518;28;20521;-83
2022/08/19 04:03:41;;;;;;;12.27;9.43;;;18.10;96.80;;;;;;5074884;28;20366;-84
2022/08/19 04:06:21;;;;;;;10.80;9.00;;;18.10;96.90;;;;;;5073451;28;20508;-83
2022/08/19 04:08:49;;;;;;;11.88;10.15;;;18.10;96.90;;;;;;5073372;28;20472;-83
2022/08/19 04:11:18;;;;;;;14.30;10.52;;;18.10;96.90;;;;;;5056808;28;20476;-83
2022/08/19 04:13:44;;;;;;;14.32;11.05;;;18.00;97.00;;;;;;5073428;28;20028;-84
2022/08/19 04:16:10;;;;;;;12.63;11.07;;;18.10;97.10;;;;;;5067218;28;20382;-82
2022/08/19 04:18:37;;;;;;;12.48;10.45;;;18.00;97.10;;;;;;5071772;28;20112;-83
2022/08/19 04:21:04;;;;;;;12.73;10.32;;;18.00;97.20;;;;;;5071292;28;20036;-82
2022/08/19 04:23:30;;;;;;;13.20;10.93;;;18.00;97.30;;;;;;5072613;28;20032;-84
2022/08/19 04:25:56;;;;;;;14.43;11.35;;;18.00;97.40;;;;;;5074098;28;20045;-84
2022/08/19 04:28:22;;;;;;;14.25;12.25;;;18.00;97.50;;;;;;5072894;28;20039;-84
2022/08/19 04:30:53;;;;;;;16.88;13.55;;;18.00;97.50;;;;;;5071923;28;20024;-84
2022/08/19 04:33:22;;;;;;;14.55;12.40;;;18.00;97.60;;;;;;5074102;28;20029;-84
2022/08/19 04:35:50;;;;;;;14.20;11.80;;;18.00;97.70;;;;;;5072650;28;20021;-85
2022/08/19 04:38:22;;;;;;;14.57;12.30;;;18.00;97.80;;;;;;5073973;28;20091;-85
2022/08/19 04:43:35;;;;;;;14.13;11.88;;;17.90;97.80;;;;;;5060608;28;20120;-83
2022/08/19 04:46:10;;;;;;;12.95;11.15;;;17.90;97.80;;;;;;5072868;28;20388;-82
2022/08/19 04:48:36;;;;;;;14.73;13.05;;;17.90;97.80;;;;;;5068769;28;20037;-82
2022/08/19 04:51:08;;;;;;;18.58;12.85;;;17.80;97.80;;;;;;5071436;28;20119;-83
2022/08/19 04:53:36;;;;;;;18.55;12.50;;;17.80;97.80;;;;;;5070399;28;20024;-83
2022/08/19 04:56:08;;;;;;;15.27;12.15;;;17.80;97.90;;;;;;5068205;28;20527;-84
2022/08/19 04:58:36;;;;;;;16.33;13.20;;;17.80;98.00;;;;;;5051141;28;20461;-83
2022/08/19 05:01:02;;;;;;;17.33;12.57;;;17.80;98.00;;;;;;5053662;28;20044;-83
2022/08/19 05:03:33;;;;;;;15.07;12.80;;;17.80;98.10;;;;;;5050297;28;20029;-82
2022/08/19 05:06:09;;;;;;;16.52;13.25;;;17.80;98.10;;;;;;5057559;28;20430;-83
2022/08/19 05:08:36;;;;;;;14.30;12.43;;;17.80;98.20;;;;;;5069309;28;20546;-84
2022/08/19 05:11:12;;;;;;;14.40;10.73;;;17.80;98.30;;;;;;5071279;28;20066;-83
2022/08/19 05:13:38;;;;;;;18.92;12.15;;;17.80;98.30;;;;;;5071083;28;20016;-83
2022/08/19 05:16:04;;;;;;;17.63;13.57;;;17.80;98.30;;;;;;5071420;28;20468;-84
2022/08/19 05:24:02;;;;;;;13.52;11.15;;;17.70;98.40;;;;;;5073501;28;20082;-83
2022/08/19 05:26:28;;;;;;;14.27;10.98;;;17.70;98.30;;;;;;5072274;28;20033;-84
2022/08/19 05:28:54;;;;;;;15.05;10.73;;;17.70;98.40;;;;;;5071989;28;20128;-84
2022/08/19 05:31:20;;;;;;;15.02;10.27;;;17.70;98.40;;;;;;5071743;28;20113;-84
2022/08/19 05:33:46;;;;;;;13.00;10.50;;;17.70;98.40;;;;;;5055346;28;20063;-84
2022/08/19 05:36:13;;;;;;;13.98;10.70;;;17.70;98.40;;;;;;5071572;28;20025;-80
2022/08/19 05:38:38;;;;;;;15.00;10.77;;;17.70;98.50;;;;;;5067706;28;20024;-80
2022/08/19 05:41:12;;;;;;;12.23;9.88;;;17.70;98.50;;;;;;5044501;28;20130;-80
2022/08/19 05:43:37;;;;;;;14.63;9.38;;;17.70;98.50;;;;;;5071167;28;20025;-80
2022/08/19 05:46:05;;;;;;;15.18;11.32;;;17.70;98.50;;;;;;5070174;28;20484;-80
2022/08/19 05:48:32;;;;;;;16.90;13.00;;;17.80;98.50;;;;;;5071871;28;20032;-80
2022/08/19 05:50:59;;;;;;;16.33;12.55;;;17.80;98.60;;;;;;5070326;28;20028;-80
2022/08/19 05:53:25;;;;;;;16.10;13.55;;;17.80;98.60;;;;;;5052834;28;20024;-80
2022/08/19 05:55:51;;;;;;;17.38;13.02;;;17.80;98.70;;;;;;5068944;28;20230;-80
2022/08/19 05:58:17;;;;;;;17.25;13.95;;;17.90;98.80;;;;;;5045373;28;20107;-80
2022/08/19 06:00:43;;;;;;;16.40;13.23;;;17.90;98.90;;;;;;5053440;28;20039;-80
2022/08/19 06:03:09;;;;;;;16.05;13.80;;;18.00;99.00;;;;;;5071136;28;20016;-80
2022/08/19 06:05:35;;;;;;;18.70;14.48;;;18.00;99.00;;;;;;5071006;28;20024;-81
2022/08/19 06:08:01;;;;;;;18.73;14.48;;;18.00;99.00;;;;;;5054492;28;20366;-81
2022/08/19 06:10:27;;;;;;;18.08;13.82;;;18.10;99.10;;;;;;5054705;28;20029;-81
2022/08/19 06:12:53;;;;;;;16.65;13.52;;;18.10;99.10;;;;;;5071440;28;20477;-80
2022/08/19 06:15:19;;;;;;;18.60;15.13;;;18.10;99.10;;;;;;5071619;28;20042;-80
2022/08/19 06:17:45;;;;;;;18.20;13.63;;;18.10;99.10;;;;;;5054782;28;20025;-80
2022/08/19 06:20:14;;;;;;;17.35;13.85;;;18.10;99.10;;;;;;5072028;28;20090;-80
2022/08/19 06:22:42;;;;;;;17.35;13.02;;;18.10;99.10;;;;;;5070412;28;20032;-80
2022/08/19 06:25:09;;;;;;;15.07;13.00;;;18.20;99.10;;;;;;5069115;28;20450;-80
2022/08/19 06:27:35;;;;;;;21.05;14.43;;;18.20;99.20;;;;;;5052847;28;20028;-79
2022/08/19 06:30:03;;;;;;;19.65;14.95;;;18.30;99.30;;;;;;5071373;28;20377;-79
2022/08/19 06:32:28;;;;;;;21.10;15.93;;;18.30;99.40;;;;;;5071194;28;20030;-80
2022/08/19 06:34:54;;;;;;;22.50;17.00;;;18.40;99.50;;;;;;5071233;28;20123;-80
2022/08/19 06:37:21;;;;;;;29.10;18.85;;;18.50;99.70;;;;;;5072237;28;20032;-81
2022/08/19 06:39:47;;;;;;;24.58;18.85;;;18.60;99.80;;;;;;5070920;28;20033;-80
2022/08/19 06:42:16;;;;;;;27.52;20.77;;;18.60;99.80;;;;;;5054593;28;20031;-81
2022/08/19 06:44:44;;;;;;;32.60;22.90;;;18.70;99.90;;;;;;5071174;28;20044;-80
2022/08/19 06:47:13;;;;;;;35.40;24.05;;;18.80;99.90;;;;;;5070844;28;20032;-80
2022/08/19 06:49:39;;;;;;;40.35;27.10;;;18.90;99.90;;;;;;5071789;28;20033;-80
2022/08/19 06:52:05;;;;;;;42.13;29.08;;;19.00;99.90;;;;;;5071240;28;20025;-79
2022/08/19 06:54:31;;;;;;;47.15;31.30;;;19.00;99.90;;;;;;5070819;28;20079;-79
2022/08/19 06:57:01;;;;;;;47.45;31.77;;;19.10;99.90;;;;;;5071941;28;20481;-89
2022/08/19 06:59:32;;;;;;;48.65;30.75;;;19.20;99.90;;;;;;5075201;28;20064;-86
2022/08/19 07:01:58;;;;;;;64.30;37.28;;;19.30;99.90;;;;;;5069754;28;20024;-89
2022/08/19 07:04:28;;;;;;;55.78;35.22;;;19.30;99.90;;;;;;5075706;28;20042;-88
2022/08/19 07:07:01;;;;;;;59.50;36.38;;;19.30;99.90;;;;;;5075883;28;20066;-89
2022/08/19 07:09:28;;;;;;;63.90;37.28;;;19.40;99.80;;;;;;5075983;28;20383;-88
2022/08/19 07:11:54;;;;;;;59.28;37.83;;;19.50;99.80;;;;;;5062039;28;20064;-87
2022/08/19 07:14:24;;;;;;;75.18;42.35;;;19.50;99.70;;;;;;5077394;28;20020;-88
2022/08/19 07:16:51;;;;;;;85.03;49.53;;;19.50;99.50;;;;;;5095323;28;20475;-85
2022/08/19 07:19:19;;;;;;;79.53;48.40;;;19.60;99.20;;;;;;5093144;28;20036;-87
2022/08/19 07:21:46;;;;;;;78.85;45.70;;;19.60;99.20;;;;;;5093117;28;20016;-86
2022/08/19 07:24:12;;;;;;;80.63;45.83;;;19.70;99.20;;;;;;5093958;28;20464;-86
2022/08/19 07:26:40;;;;;;;71.05;42.67;;;19.70;99.10;;;;;;5078846;28;20033;-89
2022/08/19 07:29:07;;;;;;;75.93;45.17;;;19.80;99.10;;;;;;5080588;28;20013;-87
2022/08/19 07:31:36;;;;;;;69.80;43.78;;;19.90;98.90;;;;;;5093239;28;20033;-89
2022/08/19 07:34:06;;;;;;;73.45;44.80;;;19.90;98.80;;;;;;5093468;28;20120;-88
2022/08/19 07:36:33;;;;;;;69.30;44.97;;;20.00;98.80;;;;;;5091943;28;20025;-86
2022/08/19 07:39:02;;;;;;;65.93;44.78;;;20.10;98.70;;;;;;5075139;28;20021;-87
2022/08/19 07:41:31;;;;;;;69.38;45.22;;;20.20;98.50;;;;;;5091633;28;20024;-89
2022/08/19 07:43:58;;;;;;;68.93;46.17;;;20.20;98.40;;;;;;5091529;28;20027;-89
2022/08/19 07:46:24;;;;;;;68.78;46.88;;;20.30;98.10;;;;;;5075657;28;20107;-86
2022/08/19 07:48:51;;;;;;;63.97;44.53;;;20.30;97.90;;;;;;5073783;28;20048;-86
2022/08/19 07:51:19;;;;;;;66.70;47.33;;;20.40;97.80;;;;;;5073905;28;20064;-87
2022/08/19 07:53:46;;;;;;;59.45;44.70;;;20.30;97.50;;;;;;5089959;28;20108;-87
2022/08/19 07:56:14;;;;;;;63.58;47.05;;;20.40;97.30;;;;;;5074920;28;20102;-86
2022/08/19 07:58:43;;;;;;;59.15;43.88;;;20.40;97.20;;;;;;5073389;28;20081;-87
2022/08/19 08:01:12;;;;;;;61.95;45.85;;;20.40;97.10;;;;;;5073882;28;20594;-85
2022/08/19 08:09:11;;;;;;;59.25;45.72;;;20.40;96.50;;;;;;5073246;28;20130;-88
2022/08/19 08:11:48;;;;;;;56.50;43.80;;;20.40;96.60;;;;;;5073813;28;20441;-87
2022/08/19 08:14:20;;;;;;;58.95;44.08;;;20.40;96.60;;;;;;5073854;28;20016;-88
2022/08/19 08:16:46;;;;;;;63.00;47.47;;;20.40;96.50;;;;;;5074755;28;20091;-87
2022/08/19 08:19:14;;;;;;;63.33;46.90;;;20.50;96.40;;;;;;5073589;28;20438;-87
2022/08/19 08:21:41;;;;;;;55.25;42.03;;;20.50;96.30;;;;;;5073506;28;20384;-86
2022/08/19 08:24:06;;;;;;;57.38;42.00;;;20.60;96.20;;;;;;5073429;28;20013;-85
2022/08/19 08:26:32;;;;;;;57.78;43.17;;;20.60;96.10;;;;;;5057447;28;20044;-86
2022/08/19 08:28:58;;;;;;;55.80;42.72;;;20.60;95.80;;;;;;5073443;28;20036;-87
2022/08/19 08:31:24;;;;;;;49.38;37.95;;;20.60;95.70;;;;;;5072997;28;20104;-86
2022/08/19 08:33:49;;;;;;;54.40;40.47;;;20.60;95.60;;;;;;5074288;28;20040;-86
2022/08/19 08:36:15;;;;;;;50.00;37.53;;;20.60;95.60;;;;;;5072910;28;20032;-85
2022/08/19 08:38:45;;;;;;;53.03;38.33;;;20.70;95.50;;;;;;5073148;28;20061;-87
2022/08/19 08:41:37;;;;;;;54.08;39.08;;;20.70;95.40;;;;;;5057483;28;20044;-88
2022/08/19 08:44:07;;;;;;;46.40;34.75;;;20.80;95.50;;;;;;5073723;28;20020;-89
2022/08/19 08:46:45;;;;;;;50.08;36.28;;;20.80;95.30;;;;;;5074091;28;20016;-88
2022/08/19 08:49:48;;;;;;;44.05;33.47;;;20.90;95.20;;;;;;5074561;28;20028;-88
2022/08/19 08:52:22;;;;;;;47.53;35.97;;;20.90;95.00;;;;;;5073240;28;20024;-91
2022/08/19 08:54:51;;;;;;;45.88;35.17;;;21.00;94.80;;;;;;5072881;28;20044;-89
2022/08/19 08:57:54;;;;;;;45.53;34.42;;;21.00;94.60;;;;;;5073406;28;20021;-89
2022/08/19 09:00:20;;;;;;;45.40;32.63;;;21.10;94.50;;;;;;5072920;28;20052;-90
2022/08/19 09:02:46;;;;;;;45.40;33.10;;;21.20;94.40;;;;;;5072919;28;20024;-90
2022/08/19 09:05:12;;;;;;;41.95;30.95;;;21.30;94.30;;;;;;5072963;28;20020;-87
2022/08/19 09:07:44;;;;;;;44.72;32.42;;;21.40;94.10;;;;;;5073132;28;20467;-87
2022/08/19 09:10:15;;;;;;;39.47;31.15;;;21.40;93.90;;;;;;5072421;28;20027;-83
2022/08/19 09:13:00;;;;;;;37.15;27.63;;;21.50;93.60;;;;;;5071685;28;20021;-82
2022/08/19 09:15:36;;;;;;;43.33;32.75;;;21.50;93.40;;;;;;5071603;28;20043;-82
2022/08/19 09:18:03;;;;;;;36.80;28.50;;;21.70;93.10;;;;;;5073490;28;20536;-83
2022/08/19 09:20:30;;;;;;;38.15;27.55;;;21.80;93.10;;;;;;5073011;28;20078;-83
2022/08/19 09:22:56;;;;;;;37.92;28.40;;;21.90;92.80;;;;;;5055615;28;20029;-83
2022/08/19 09:25:23;;;;;;;37.53;25.75;;;22.10;92.30;;;;;;5072155;28;20027;-85
2022/08/19 09:27:51;;;;;;;34.78;24.80;;;22.20;92.20;;;;;;5055534;28;20123;-86
2022/08/19 09:30:24;;;;;;;40.03;28.10;;;22.30;92.10;;;;;;5072502;28;20021;-90
2022/08/19 09:32:54;;;;;;;35.45;25.92;;;22.40;91.60;;;;;;5073730;28;20158;-88
2022/08/19 09:35:22;;;;;;;36.22;26.02;;;22.50;91.30;;;;;;5073977;28;20048;-89
2022/08/19 09:37:49;;;;;;;34.45;25.58;;;22.50;91.00;;;;;;5072662;28;20021;-89
2022/08/19 09:40:15;;;;;;;32.60;23.95;;;22.60;91.00;;;;;;5072553;28;20047;-87
2022/08/19 09:42:43;;;;;;;33.17;23.27;;;22.70;90.60;;;;;;5073586;28;20025;-89
2022/08/19 09:45:10;;;;;;;30.95;23.67;;;22.70;90.10;;;;;;5072924;28;20024;-89
2022/08/19 09:47:37;;;;;;;32.05;23.98;;;22.60;89.30;;;;;;5073918;28;20500;-89
2022/08/19 09:50:08;;;;;;;29.38;21.05;;;22.60;88.90;;;;;;5056238;28;20027;-91
2022/08/19 09:52:36;;;;;;;29.27;20.52;;;22.60;89.00;;;;;;5072683;28;20029;-90
2022/08/19 09:55:04;;;;;;;34.88;21.73;;;22.60;88.90;;;;;;5056320;28;20120;-88
2022/08/19 09:57:30;;;;;;;29.48;21.10;;;22.60;88.80;;;;;;5057111;28;20017;-88
2022/08/19 09:59:55;;;;;;;28.83;20.35;;;22.70;88.50;;;;;;5074061;28;20056;-87
2022/08/19 10:02:21;;;;;;;27.02;18.88;;;22.70;87.90;;;;;;5072736;28;20032;-88
2022/08/19 10:07:31;;;;;;;;;;;22.80;85.60;;;;;;5073876;28;20086;-88
2022/08/19 10:09:57;;;;;;;30.77;22.35;;;22.70;85.90;;;;;;5073248;28;20411;-89
2022/08/19 10:12:22;;;;;;;31.58;21.73;;;22.70;85.90;;;;;;5072972;28;20028;-90
2022/08/19 10:14:50;;;;;;;27.05;19.90;;;22.80;85.80;;;;;;5072654;28;20024;-91
2022/08/19 10:17:17;;;;;;;28.42;20.70;;;22.90;85.90;;;;;;5073191;28;20028;-90
2022/08/19 10:19:43;;;;;;;25.27;19.00;;;23.10;85.10;;;;;;5071929;28;20055;-90
2022/08/19 10:22:13;;;;;;;29.38;18.60;;;23.20;84.80;;;;;;5074397;28;20468;-89
2022/08/19 10:24:39;;;;;;;28.70;17.17;;;23.50;84.70;;;;;;5057404;28;20028;-88
2022/08/19 10:27:05;;;;;;;23.88;18.13;;;23.80;84.40;;;;;;5075090;28;20039;-89
2022/08/19 10:29:34;;;;;;;24.30;16.55;;;24.10;83.20;;;;;;5056887;28;20035;-89
2022/08/19 10:32:07;;;;;;;26.33;19.25;;;24.30;82.40;;;;;;5072899;28;20024;-90
2022/08/19 10:34:33;;;;;;;23.48;15.98;;;24.60;80.70;;;;;;5075769;28;20016;-86
2022/08/19 10:37:00;;;;;;;20.23;16.05;;;24.70;80.90;;;;;;5076647;28;20025;-91
2022/08/19 10:39:29;;;;;;;23.17;16.70;;;25.00;80.00;;;;;;5075835;28;20027;-90
2022/08/19 10:41:56;;;;;;;25.58;16.02;;;25.50;79.00;;;;;;5077647;28;20029;-90
2022/08/19 10:44:22;;;;;;;23.98;16.17;;;26.00;78.90;;;;;;5091307;28;20528;-88
2022/08/19 10:46:48;;;;;;;17.83;13.20;;;26.40;77.30;;;;;;5058386;28;20464;-86
2022/08/19 10:49:14;;;;;;;20.73;13.02;;;26.80;76.20;;;;;;5091929;28;20073;-87
2022/08/19 10:56:50;;;;;;;17.42;12.70;;;27.70;73.30;;;;;;5076366;28;20059;-86
2022/08/19 10:57:11;;;;;;;17.05;12.15;;;27.90;70.70;;;;;;5075597;28;20033;-85
2022/08/19 10:59:37;;;;;;;18.73;13.13;;;28.20;69.80;;;;;;5076147;28;20385;-85
2022/08/19 11:02:05;;;;;;;16.75;13.10;;;28.10;67.30;;;;;;5074733;28;20530;-84
2022/08/19 11:04:32;;;;;;;15.00;11.27;;;28.30;67.10;;;;;;5091058;28;20021;-86
2022/08/19 11:06:58;;;;;;;14.10;10.43;;;28.50;67.30;;;;;;5092230;28;20016;-86
2022/08/19 11:09:27;;;;;;;16.60;11.45;;;28.90;65.80;;;;;;5094333;28;20229;-93
2022/08/19 11:11:53;;;;;;;14.32;10.90;;;29.40;64.10;;;;;;5092525;28;20107;-89
2022/08/19 11:14:20;;;;;;;15.57;11.80;;;29.80;63.60;;;;;;5076333;28;20097;-89
2022/08/19 11:16:47;;;;;;;17.15;14.27;;;29.80;62.70;;;;;;5075894;28;20043;-88
2022/08/19 11:19:16;;;;;;;15.13;11.55;;;29.80;61.50;;;;;;5075515;28;20120;-86
2022/08/19 11:21:44;;;;;;;16.10;10.65;;;29.70;61.20;;;;;;5076515;28;20033;-88
2022/08/19 11:24:15;;;;;;;17.30;11.68;;;29.80;61.10;;;;;;5076647;28;20029;-89
2022/08/19 11:26:42;;;;;;;14.90;10.15;;;30.10;60.70;;;;;;5076197;28;20029;-87
2022/08/19 11:29:11;;;;;;;13.20;10.32;;;30.50;60.70;;;;;;5075342;28;20020;-89
2022/08/19 11:31:39;;;;;;;12.63;8.50;;;31.10;59.90;;;;;;5075848;28;20033;-87
2022/08/19 11:34:12;;;;;;;14.45;9.95;;;31.60;58.90;;;;;;5058386;28;20124;-88
2022/08/19 11:36:38;;;;;;;;;;;31.90;58.20;;;;;;5074878;28;20017;-89
2022/08/19 11:39:06;;;;;;;15.20;9.98;;;32.20;56.70;;;;;;5075545;28;19904;-88
2022/08/19 11:41:32;;;;;;;12.43;9.40;;;32.20;56.60;;;;;;5074918;28;20029;-89
2022/08/19 11:43:57;;;;;;;13.98;10.48;;;32.30;56.00;;;;;;5074351;28;20020;-86
2022/08/19 11:46:25;;;;;;;12.45;9.40;;;32.60;55.70;;;;;;5075538;28;20036;-87
2022/08/19 11:48:51;;;;;;;11.50;9.05;;;32.80;55.40;;;;;;5073810;28;20029;-86
2022/08/19 11:51:21;;;;;;;12.50;9.43;;;32.80;55.10;;;;;;5057651;28;20122;-89
2022/08/19 11:53:49;;;;;;;14.43;10.93;;;32.80;54.90;;;;;;5075514;28;20053;-87
2022/08/19 11:56:14;;;;;;;9.88;8.13;;;32.80;54.70;;;;;;5075485;28;20052;-87
2022/08/19 11:58:43;;;;;;;12.52;9.82;;;32.80;54.40;;;;;;5074878;28;20465;-88
2022/08/19 12:01:15;;;;;;;11.60;9.90;;;32.80;54.20;;;;;;5074751;28;20123;-85
2022/08/19 12:03:43;;;;;;;14.73;9.57;;;32.80;53.80;;;;;;5076043;28;20025;-85
2022/08/19 12:06:14;;;;;;;12.43;9.60;;;32.90;53.40;;;;;;5074227;28;20615;-87
2022/08/19 12:08:40;;;;;;;10.95;8.35;;;32.90;53.20;;;;;;5073756;28;20086;-85
2022/08/19 12:11:09;;;;;;;11.38;9.43;;;32.90;53.40;;;;;;5073480;28;20050;-89
2022/08/19 12:13:36;;;;;;;16.70;10.68;;;33.00;53.40;;;;;;5074410;28;20021;-90
2022/08/19 12:16:10;;;;;;;11.63;9.38;;;33.10;53.30;;;;;;5075703;28;20029;-90
2022/08/19 12:18:36;;;;;;;12.52;9.75;;;33.20;53.10;;;;;;5074434;28;20465;-91
2022/08/19 12:21:01;;;;;;;14.38;9.88;;;33.30;53.10;;;;;;5074162;28;20075;-88
2022/08/19 12:23:27;;;;;;;10.80;8.30;;;33.40;52.80;;;;;;5075063;28;20028;-89
2022/08/19 12:25:54;;;;;;;12.27;10.23;;;33.40;52.80;;;;;;5059986;28;20078;-90
2022/08/19 12:28:21;;;;;;;12.02;9.60;;;33.50;52.80;;;;;;5078101;28;20025;-92
2022/08/19 12:30:50;;;;;;;11.35;9.85;;;33.60;52.60;;;;;;5076566;28;20384;-93
2022/08/19 12:33:17;;;;;;;14.00;11.00;;;33.50;52.40;;;;;;5074651;28;20094;-92
2022/08/19 12:35:45;;;;;;;12.38;10.77;;;33.50;52.50;;;;;;5079293;28;20032;-90
2022/08/19 12:38:11;;;;;;;11.93;10.43;;;33.40;52.30;;;;;;5077340;28;20491;-88
2022/08/19 12:40:37;;;;;;;13.93;10.23;;;33.30;52.30;;;;;;5092060;28;20032;-88
2022/08/19 12:43:03;;;;;;;12.95;10.48;;;33.30;52.40;;;;;;5077269;28;20476;-89
2022/08/19 12:45:29;;;;;;;12.63;10.43;;;33.40;52.20;;;;;;5091999;28;20032;-88
2022/08/19 12:47:55;;;;;;;12.75;9.23;;;33.40;52.00;;;;;;5059701;28;20388;-86
2022/08/19 12:50:21;;;;;;;14.43;10.35;;;33.50;51.80;;;;;;5076138;28;20077;-91
2022/08/19 12:52:47;;;;;;;13.60;10.98;;;33.60;51.70;;;;;;5076329;28;20084;-91
2022/08/19 12:55:14;;;;;;;18.30;9.70;;;33.50;51.50;;;;;;5091796;28;20052;-90
2022/08/19 12:57:40;;;;;;;12.82;9.98;;;33.40;51.70;;;;;;5074665;28;20107;-91
2022/08/19 13:00:15;;;;;;;16.27;12.38;;;33.60;52.00;;;;;;5073218;28;20036;-88